Time;durP1;ratioP1;P1;durP2;ratioP2;P2;SDS_P1;SDS_P2;PMS_P1;PMS_P2;Temp;Humidity;BMP_temperature;BMP_pressure;BME280_temperature;BME280_humidity;BME280_pressure;Samples;Min_cycle;Max_cycle;Signal;HPM_P1;HPM_P2
2022/11/03 00:01:41;;;;;;;10.50;4.45;;;;;;;4.96;100.00;99256.59;5022668;28;20052;-52
2022/11/03 00:04:09;;;;;;;15.10;3.92;;;;;;;4.92;100.00;99244.50;5042678;28;20020;-52
2022/11/03 00:06:36;;;;;;;15.73;4.90;;;;;;;4.88;100.00;99240.47;5033793;28;20533;-52
2022/11/03 00:09:04;;;;;;;13.15;5.13;;;;;;;4.88;100.00;99243.16;5033137;28;20279;-52
2022/11/03 00:11:35;;;;;;;15.05;5.13;;;;;;;4.89;100.00;99242.13;5042800;28;20520;-52
2022/11/03 00:14:00;;;;;;;16.42;4.90;;;;;;;4.90;100.00;99241.16;5041633;28;20039;-52
2022/11/03 00:16:26;;;;;;;14.98;4.82;;;;;;;4.99;100.00;99226.78;5033290;28;20116;-52
2022/11/03 00:18:52;;;;;;;14.20;4.53;;;;;;;5.07;100.00;99225.19;5025512;28;20539;-52
2022/11/03 00:21:18;;;;;;;9.68;4.30;;;;;;;5.09;100.00;99223.19;5032152;28;20067;-52
2022/11/03 00:23:44;;;;;;;10.88;4.47;;;;;;;5.09;100.00;99217.81;5042321;28;20044;-52
2022/11/03 00:26:20;;;;;;;9.48;4.30;;;;;;;4.99;100.00;99212.56;5030760;28;20082;-52
2022/11/03 00:28:47;;;;;;;12.80;4.70;;;;;;;5.00;100.00;99217.78;5033661;28;20028;-52
2022/11/03 00:31:18;;;;;;;13.88;5.00;;;;;;;4.97;100.00;99220.75;5024790;28;20025;-52
2022/11/03 00:33:44;;;;;;;12.18;4.30;;;;;;;4.91;100.00;99210.66;5024582;28;20030;-52
2022/11/03 00:36:13;;;;;;;12.52;4.95;;;;;;;4.90;100.00;99208.97;5033443;28;20043;-52
2022/11/03 00:38:38;;;;;;;10.48;3.72;;;;;;;4.86;100.00;99206.78;5027361;28;20025;-52
2022/11/03 00:41:05;;;;;;;11.18;4.43;;;;;;;4.85;100.00;99203.25;5036778;28;20036;-52
2022/11/03 00:43:32;;;;;;;11.82;4.20;;;;;;;4.86;100.00;99204.91;5025391;28;20037;-52
2022/11/03 00:45:59;;;;;;;10.48;5.03;;;;;;;4.87;100.00;99195.88;5031927;28;20114;-52
2022/11/03 00:48:33;;;;;;;9.13;4.38;;;;;;;4.79;100.00;99187.78;5027355;28;20033;-52
2022/11/03 00:51:08;;;;;;;11.95;4.25;;;;;;;4.72;100.00;99189.41;5042796;28;20472;-52
2022/11/03 00:53:37;;;;;;;12.02;4.18;;;;;;;4.61;100.00;99190.47;5055507;28;20032;-52
2022/11/03 00:56:03;;;;;;;8.88;4.05;;;;;;;4.59;100.00;99195.19;5034433;28;20036;-52
2022/11/03 00:58:29;;;;;;;7.88;4.00;;;;;;;4.64;100.00;99197.38;5029379;28;20451;-52
2022/11/03 01:01:03;;;;;;;8.02;3.95;;;;;;;4.58;100.00;99178.28;5028325;28;20086;-52
2022/11/03 01:03:31;;;;;;;12.05;3.40;;;;;;;4.73;100.00;99188.41;5036648;28;20024;-52
2022/11/03 01:08:40;;;;;;;7.65;3.42;;;;;;;4.70;100.00;99191.41;5045755;28;20075;-52
2022/11/03 01:13:52;;;;;;;13.18;3.80;;;;;;;4.75;100.00;99195.31;5054774;28;20047;-52
2022/11/03 01:16:18;;;;;;;8.50;3.47;;;;;;;4.89;100.00;99193.88;5035761;28;20472;-52
2022/11/03 01:18:43;;;;;;;11.02;4.28;;;;;;;4.88;100.00;99186.84;5054716;28;20016;-52
2022/11/03 01:21:09;;;;;;;14.05;3.75;;;;;;;4.90;100.00;99192.91;5034422;28;20030;-52
2022/11/03 01:23:34;;;;;;;9.38;3.85;;;;;;;4.91;100.00;99178.47;5024207;28;20095;-52
2022/11/03 01:26:07;;;;;;;8.90;4.03;;;;;;;4.91;100.00;99177.66;5039587;28;20024;-52
2022/11/03 01:28:34;;;;;;;10.27;3.63;;;;;;;4.93;100.00;99178.34;5034399;28;20395;-52
2022/11/03 01:31:12;;;;;;;12.25;3.78;;;;;;;4.89;100.00;99175.13;5045508;28;20025;-52
2022/11/03 01:33:37;;;;;;;9.90;4.03;;;;;;;4.89;100.00;99164.38;5036504;28;20052;-52
2022/11/03 01:36:03;;;;;;;8.13;3.97;;;;;;;4.95;100.00;99168.28;5036211;28;20067;-52
2022/11/03 01:38:33;;;;;;;10.77;3.58;;;;;;;4.93;100.00;99155.03;5032568;28;20032;-52
2022/11/03 01:41:00;;;;;;;12.38;3.72;;;;;;;4.97;100.00;99153.72;5031743;28;20033;-52
2022/11/03 01:43:27;;;;;;;13.63;4.32;;;;;;;4.92;100.00;99137.25;5033266;28;20029;-52
2022/11/03 01:46:22;;;;;;;7.88;3.75;;;;;;;4.99;100.00;99137.47;5034551;28;20027;-52
2022/11/03 01:48:55;;;;;;;8.23;3.72;;;;;;;4.99;100.00;99121.38;5039494;28;20502;-52
2022/11/03 01:51:23;;;;;;;12.98;3.47;;;;;;;4.91;100.00;99116.81;5028337;28;20028;-51
2022/11/03 01:53:50;;;;;;;11.90;4.22;;;;;;;4.79;100.00;99115.41;5034292;28;20033;-52
2022/11/03 01:56:18;;;;;;;8.02;3.15;;;;;;;4.66;100.00;99114.97;5038273;28;20025;-52
2022/11/03 01:58:46;;;;;;;11.05;4.32;;;;;;;4.52;100.00;99111.88;5042259;28;20024;-52
2022/11/03 02:01:11;;;;;;;15.13;4.28;;;;;;;4.50;100.00;99119.22;5037752;28;20032;-52
2022/11/03 02:03:42;;;;;;;14.25;3.85;;;;;;;4.44;100.00;99121.72;5034529;28;20033;-51
2022/11/03 02:06:09;;;;;;;10.63;3.33;;;;;;;4.35;100.00;99128.84;5030391;28;20090;-51
2022/11/03 02:08:45;;;;;;;8.43;3.40;;;;;;;4.23;100.00;99124.72;5044596;28;20124;-51
2022/11/03 02:13:56;;;;;;;7.65;3.70;;;;;;;4.16;100.00;99119.13;5063386;28;20026;-51
2022/11/03 02:16:23;;;;;;;11.85;3.60;;;;;;;4.12;100.00;99129.34;5039953;28;20029;-51
2022/11/03 02:18:50;;;;;;;6.28;2.97;;;;;;;4.12;100.00;99123.97;5034207;28;20082;-52
2022/11/03 02:21:25;;;;;;;8.23;3.65;;;;;;;3.99;100.00;99114.66;5032277;28;20071;-51
2022/11/03 02:24:17;;;;;;;7.78;3.60;;;;;;;3.96;100.00;99105.09;5045118;28;20037;-52
2022/11/03 02:26:48;;;;;;;9.95;3.75;;;;;;;4.03;100.00;99099.97;5044015;28;20048;-54
2022/11/03 02:29:13;;;;;;;10.77;3.63;;;;;;;4.07;100.00;99110.22;5034559;28;20031;-54
2022/11/03 02:31:48;;;;;;;8.35;4.10;;;;;;;4.16;100.00;99103.06;5032201;28;20029;-54
2022/11/03 02:34:22;;;;;;;7.95;3.78;;;;;;;4.24;100.00;99104.97;5033649;28;20031;-54
2022/11/03 02:36:47;;;;;;;7.88;3.75;;;;;;;4.33;100.00;99106.75;5046764;28;20020;-54
2022/11/03 02:39:52;;;;;;;10.02;4.40;;;;;;;4.29;100.00;99108.88;5040018;28;20054;-54
2022/11/03 02:42:19;;;;;;;8.00;4.15;;;;;;;4.24;100.00;99102.31;5021627;28;20037;-54
2022/11/03 02:44:46;;;;;;;11.63;4.15;;;;;;;4.12;100.00;99107.06;5054317;28;20392;-54
2022/11/03 02:47:13;;;;;;;11.73;4.43;;;;;;;4.07;100.00;99096.00;5032896;28;20111;-54
2022/11/03 02:49:44;;;;;;;12.40;4.38;;;;;;;4.05;100.00;99104.16;5036505;28;20048;-54
2022/11/03 02:52:34;;;;;;;12.75;4.65;;;;;;;4.03;100.00;99091.91;5031763;28;20025;-54
2022/11/03 02:55:08;;;;;;;12.50;4.85;;;;;;;3.99;100.00;99095.91;5033397;28;20029;-54
2022/11/03 02:57:40;;;;;;;14.82;4.72;;;;;;;3.99;100.00;99091.41;5032877;28;20032;-54
2022/11/03 03:00:08;;;;;;;10.73;5.03;;;;;;;3.91;100.00;99078.78;5028705;28;20400;-54
2022/11/03 03:02:37;;;;;;;14.45;3.92;;;;;;;3.93;100.00;99079.47;5042855;28;20028;-54
2022/11/03 03:05:07;;;;;;;10.15;4.65;;;;;;;3.99;100.00;99074.50;5049019;28;20041;-54
2022/11/03 03:07:36;;;;;;;15.15;4.45;;;;;;;3.93;100.00;99065.25;5037774;28;20115;-54
2022/11/03 03:10:14;;;;;;;11.68;4.75;;;;;;;3.91;100.00;99059.22;5044023;28;20021;-54
2022/11/03 03:12:45;;;;;;;13.03;5.23;;;;;;;3.92;100.00;99058.22;5027133;28;20124;-54
2022/11/03 03:15:11;;;;;;;12.52;4.32;;;;;;;3.85;100.00;99030.38;5088753;22;20036;-74
2022/11/03 03:17:50;;;;;;;15.20;4.22;;;;;;;4.08;100.00;99030.72;5068932;28;20028;-73
2022/11/03 03:20:27;;;;;;;13.90;4.32;;;;;;;4.23;100.00;99029.16;5071109;28;20481;-74
2022/11/03 03:23:16;;;;;;;10.27;4.22;;;;;;;4.07;100.00;99002.28;5071760;28;20065;-74
2022/11/03 03:25:49;;;;;;;12.20;3.92;;;;;;;4.21;100.00;99022.28;5062022;28;20030;-73
2022/11/03 03:28:21;;;;;;;10.25;3.97;;;;;;;4.24;100.00;99013.94;5047510;28;20029;-75
2022/11/03 03:30:47;;;;;;;12.45;3.92;;;;;;;4.04;100.00;99016.81;5056500;28;20052;-74
2022/11/03 03:33:15;;;;;;;11.20;3.72;;;;;;;4.00;100.00;99011.94;5042681;28;20033;-74
2022/11/03 03:35:45;;;;;;;7.90;3.85;;;;;;;3.79;100.00;98994.38;5037242;28;20154;-74
2022/11/03 03:38:20;;;;;;;11.52;3.92;;;;;;;3.81;100.00;99011.13;5048265;28;20377;-74
2022/11/03 03:40:49;;;;;;;12.30;4.40;;;;;;;3.78;100.00;98999.91;5061444;28;20024;-73
2022/11/03 03:43:15;;;;;;;8.30;3.65;;;;;;;3.63;100.00;98995.06;5062526;28;20024;-74
2022/11/03 03:45:43;;;;;;;8.68;3.38;;;;;;;3.60;100.00;99019.47;5066076;28;20024;-73
2022/11/03 03:48:10;;;;;;;7.20;3.90;;;;;;;3.40;100.00;98984.00;5048330;28;20381;-74
2022/11/03 03:50:38;;;;;;;6.80;3.03;;;;;;;3.43;100.00;99004.25;5048523;28;20018;-74
2022/11/03 03:53:08;;;;;;;10.27;3.30;;;;;;;3.42;100.00;99002.59;5064743;28;20116;-74
2022/11/03 03:55:37;;;;;;;9.95;4.28;;;;;;;3.34;100.00;98989.97;5052738;28;20044;-74
2022/11/03 03:58:06;;;;;;;7.38;3.63;;;;;;;3.56;100.00;98983.31;5071574;28;20040;-72
2022/11/03 04:00:32;;;;;;;9.48;3.58;;;;;;;3.49;100.00;98985.78;5044825;28;20032;-73
2022/11/03 04:02:58;;;;;;;10.25;3.95;;;;;;;3.58;100.00;98981.31;5051747;28;20029;-72
2022/11/03 04:05:25;;;;;;;12.80;4.05;;;;;;;3.53;100.00;98959.53;5052467;28;20028;-74
2022/11/03 04:07:51;;;;;;;12.13;3.78;;;;;;;3.57;100.00;98963.59;5051811;28;20025;-73
2022/11/03 04:10:19;;;;;;;8.27;4.43;;;;;;;3.59;100.00;98971.47;5075413;28;20035;-73
2022/11/03 04:23:43;;;;;;;11.07;4.32;;;;;;;3.47;100.00;98952.16;5052651;28;20432;-72
2022/11/03 04:26:12;;;;;;;14.20;3.97;;;;;;;3.40;100.00;98918.97;5051254;28;20024;-72
2022/11/03 04:28:39;;;;;;;9.05;4.47;;;;;;;3.46;100.00;98910.34;5053214;28;20021;-72
2022/11/03 04:31:09;;;;;;;13.30;4.43;;;;;;;3.69;100.00;98930.25;5057392;28;20108;-72
2022/11/03 04:33:34;;;;;;;13.63;4.47;;;;;;;3.76;100.00;98921.59;5058711;28;20041;-74
2022/11/03 04:35:59;;;;;;;12.73;4.10;;;;;;;3.58;100.00;98902.91;5054965;28;20101;-73
2022/11/03 04:38:26;;;;;;;9.98;4.38;;;;;;;3.52;100.00;98899.03;5054822;28;20029;-73
2022/11/03 04:40:54;;;;;;;12.43;4.07;;;;;;;3.51;100.00;98895.53;5050403;28;20017;-73
2022/11/03 04:43:21;;;;;;;13.77;4.45;;;;;;;3.57;100.00;98914.63;5077608;28;20028;-73
2022/11/03 04:45:48;;;;;;;15.50;4.65;;;;;;;3.74;100.00;98919.91;5052749;28;20479;-71
2022/11/03 04:48:18;;;;;;;14.10;4.43;;;;;;;3.83;100.00;98909.28;5059314;28;20428;-74
2022/11/03 04:50:45;;;;;;;8.65;3.97;;;;;;;3.83;100.00;98912.78;5055216;28;20028;-73
2022/11/03 04:53:13;;;;;;;15.20;4.32;;;;;;;3.82;100.00;98915.59;5063102;28;20090;-73
2022/11/03 04:55:40;;;;;;;11.38;4.97;;;;;;;3.79;100.00;98910.56;5041622;28;20056;-72
2022/11/03 04:58:27;;;;;;;9.63;4.15;;;;;;;3.89;100.00;98908.63;5052728;28;20044;-73
2022/11/03 05:00:58;;;;;;;8.32;4.38;;;;;;;3.92;100.00;98897.59;5055941;28;20017;-71
2022/11/03 05:03:35;;;;;;;10.70;4.25;;;;;;;3.99;100.00;98897.81;5044057;28;20036;-73
2022/11/03 05:06:19;;;;;;;13.55;4.78;;;;;;;4.14;100.00;98880.19;5060439;28;20025;-71
2022/11/03 05:08:48;;;;;;;11.88;4.93;;;;;;;4.25;100.00;98887.09;5048968;28;20029;-73
2022/11/03 05:11:36;;;;;;;14.90;5.53;;;;;;;4.34;100.00;98888.78;5068193;28;20024;-73
2022/11/03 05:14:06;;;;;;;11.15;4.97;;;;;;;4.28;100.00;98879.56;5077586;28;20036;-75
2022/11/03 05:16:32;;;;;;;10.10;4.95;;;;;;;4.45;100.00;98888.47;5086043;28;20081;-74
2022/11/03 05:18:59;;;;;;;15.40;5.15;;;;;;;4.48;100.00;98882.81;5069383;28;20047;-74
2022/11/03 05:21:26;;;;;;;11.32;5.35;;;;;;;4.52;100.00;98892.19;5061044;28;20032;-75
2022/11/03 05:23:55;;;;;;;14.05;6.72;;;;;;;4.59;100.00;98892.38;5084278;28;20024;-73
2022/11/03 05:26:25;;;;;;;17.38;5.38;;;;;;;4.61;100.00;98898.41;5064752;28;20014;-72
2022/11/03 05:28:58;;;;;;;11.00;5.60;;;;;;;4.55;100.00;98883.00;5080122;28;20037;-74
2022/11/03 05:31:29;;;;;;;9.13;4.75;;;;;;;4.32;100.00;98883.59;5083270;28;20025;-72
2022/11/03 05:34:00;;;;;;;12.13;4.50;;;;;;;4.15;100.00;98880.00;5076790;28;20021;-73
2022/11/03 05:36:29;;;;;;;12.55;4.50;;;;;;;4.06;100.00;98882.78;5080230;28;20021;-73
2022/11/03 05:39:00;;;;;;;9.15;3.80;;;;;;;3.83;100.00;98880.69;5060796;28;20086;-75
2022/11/03 05:41:28;;;;;;;9.52;4.70;;;;;;;3.49;100.00;98852.03;5060395;28;20033;-72
2022/11/03 05:44:35;;;;;;;8.63;4.38;;;;;;;3.50;100.00;98860.88;5066570;28;20032;-73
2022/11/03 05:47:02;;;;;;;10.88;3.90;;;;;;;3.53;100.00;98865.91;5066067;28;20122;-73
2022/11/03 05:49:28;;;;;;;11.65;4.50;;;;;;;3.55;100.00;98853.22;5058765;28;20029;-71
2022/11/03 05:51:54;;;;;;;13.05;4.80;;;;;;;3.51;100.00;98835.81;5054276;28;20094;-72
2022/11/03 05:54:26;;;;;;;14.15;5.40;;;;;;;3.53;100.00;98839.16;5052300;28;20029;-72
2022/11/03 05:56:51;;;;;;;17.25;5.40;;;;;;;3.50;100.00;98832.31;5051631;28;20166;-70
2022/11/03 05:59:21;;;;;;;9.65;4.97;;;;;;;3.54;100.00;98840.88;5052191;28;20060;-74
2022/11/03 06:01:47;;;;;;;11.55;5.80;;;;;;;3.55;100.00;98845.22;5073071;28;20025;-73
2022/11/03 06:04:30;;;;;;;11.52;5.22;;;;;;;3.53;100.00;98843.69;5055676;28;20160;-71
2022/11/03 06:07:03;;;;;;;14.63;5.53;;;;;;;3.52;100.00;98848.22;5065591;28;20017;-71
2022/11/03 06:09:32;;;;;;;12.45;5.70;;;;;;;3.52;100.00;98848.22;5064769;28;20073;-71
2022/11/03 06:12:00;;;;;;;14.50;5.47;;;;;;;3.59;100.00;98835.88;5050651;28;20037;-70
2022/11/03 06:14:28;;;;;;;14.13;5.80;;;;;;;3.54;100.00;98840.00;5060840;28;20055;-70
2022/11/03 06:16:54;;;;;;;14.32;6.57;;;;;;;3.57;100.00;98829.00;5054867;28;20041;-75
2022/11/03 06:19:22;;;;;;;12.88;6.00;;;;;;;3.63;100.00;98829.22;5053048;28;20032;-69
2022/11/03 06:21:50;;;;;;;13.18;5.85;;;;;;;3.69;100.00;98828.59;5053405;28;20017;-72
2022/11/03 06:24:18;;;;;;;11.73;5.40;;;;;;;3.73;100.00;98821.91;5056077;28;20029;-72
2022/11/03 06:26:46;;;;;;;16.35;6.28;;;;;;;3.81;100.00;98825.63;5057956;28;20155;-71
2022/11/03 06:29:17;;;;;;;15.93;6.35;;;;;;;3.88;100.00;98824.00;5048904;28;20088;-69
2022/11/03 06:31:48;;;;;;;13.27;4.78;;;;;;;3.83;100.00;98804.91;5054953;28;20024;-70
2022/11/03 06:34:45;;;;;;;8.40;4.85;;;;;;;3.93;100.00;98805.63;5039920;28;20638;-70
2022/11/03 06:37:24;;;;;;;16.20;4.97;;;;;;;4.02;100.00;98782.41;5064890;28;20060;-68
2022/11/03 06:39:52;;;;;;;9.80;4.43;;;;;;;4.38;100.00;98799.06;5057540;28;20028;-70
2022/11/03 06:42:21;;;;;;;16.70;6.00;;;;;;;4.69;100.00;98785.91;5054681;28;20053;-70
2022/11/03 06:44:49;;;;;;;13.23;5.30;;;;;;;5.41;100.00;98774.44;5061323;28;20028;-70
2022/11/03 06:47:23;;;;;;;10.93;4.57;;;;;;;7.00;100.00;98774.16;5071813;28;20410;-70
2022/11/03 06:49:55;;;;;;;8.00;3.40;;;;;;;8.40;100.00;98752.69;5055422;28;20017;-70
2022/11/03 06:52:32;;;;;;;7.45;2.88;;;;;;;9.50;100.00;98734.34;5057420;28;20033;-70
2022/11/03 06:55:25;;;;;;;5.80;2.63;;;;;;;10.66;100.00;98718.19;5044734;28;20024;-70
2022/11/03 06:57:56;;;;;;;11.73;2.30;;;;;;;11.17;100.00;98726.56;5051232;28;20120;-68
2022/11/03 07:00:28;;;;;;;5.78;2.22;;;;;;;11.37;100.00;98718.41;5061126;28;20035;-71
2022/11/03 07:03:13;;;;;;;4.68;2.60;;;;;;;12.00;100.00;98726.00;5053642;28;20025;-69
2022/11/03 07:05:39;;;;;;;5.45;2.65;;;;;;;12.58;100.00;98729.69;5055584;28;20033;-69
2022/11/03 07:08:18;;;;;;;7.82;3.05;;;;;;;12.19;100.00;98723.41;5058975;28;20027;-69
2022/11/03 07:10:43;;;;;;;5.03;2.53;;;;;;;13.19;100.00;98730.91;5060622;28;20032;-66
2022/11/03 07:13:14;;;;;;;8.50;3.17;;;;;;;13.41;100.00;98731.34;5059188;28;20035;-69
2022/11/03 07:15:42;;;;;;;4.88;2.53;;;;;;;13.72;99.50;98725.81;5050791;28;20070;-73
2022/11/03 07:18:22;;;;;;;8.80;2.75;;;;;;;13.12;100.00;98723.63;5041135;28;20477;-71
2022/11/03 07:20:48;;;;;;;11.05;2.70;;;;;;;12.76;100.00;98721.63;5043624;28;21405;-72
2022/11/03 07:23:18;;;;;;;7.15;2.72;;;;;;;12.52;100.00;98720.50;5051547;28;20032;-72
2022/11/03 07:25:49;;;;;;;5.90;2.53;;;;;;;11.41;100.00;98694.44;5063868;28;20047;-73
2022/11/03 07:28:14;;;;;;;17.95;3.05;;;;;;;11.94;100.00;98710.56;5074077;28;20486;-73
2022/11/03 07:30:39;;;;;;;9.43;3.30;;;;;;;11.54;100.00;98704.41;5064329;28;20028;-73
2022/11/03 07:33:18;;;;;;;11.10;3.13;;;;;;;11.12;100.00;98693.03;5063603;28;20105;-71
2022/11/03 07:35:44;;;;;;;7.75;2.75;;;;;;;12.11;100.00;98678.41;5049401;28;20413;-74
2022/11/03 07:38:13;;;;;;;10.05;2.75;;;;;;;12.38;100.00;98676.34;5065995;28;20025;-75
2022/11/03 07:40:39;;;;;;;11.63;3.30;;;;;;;12.69;100.00;98666.56;5051786;28;20114;-76
2022/11/03 07:43:16;;;;;;;10.25;3.45;;;;;;;13.01;100.00;98675.47;5048739;28;20024;-74
2022/11/03 07:45:52;;;;;;;8.63;3.00;;;;;;;12.20;100.00;98670.81;5056390;28;20035;-73
2022/11/03 07:48:21;;;;;;;8.93;3.30;;;;;;;11.62;100.00;98653.53;5047477;28;20494;-74
2022/11/03 07:50:48;;;;;;;7.53;3.70;;;;;;;11.34;100.00;98663.81;5046690;28;21740;-74
2022/11/03 07:53:20;;;;;;;9.25;3.28;;;;;;;11.83;100.00;98667.84;5051493;28;20419;-72
2022/11/03 07:55:46;;;;;;;6.43;3.70;;;;;;;12.22;100.00;98652.47;5058638;28;20107;-74
2022/11/03 07:58:37;;;;;;;7.18;3.08;;;;;;;12.69;100.00;98663.84;5039661;28;20074;-74
2022/11/03 08:01:35;;;;;;;7.10;3.10;;;;;;;12.98;100.00;98654.19;5056681;28;20489;-75
2022/11/03 08:04:07;;;;;;;10.40;3.20;;;;;;;12.40;100.00;98657.97;5051612;28;20029;-74
2022/11/03 08:06:33;;;;;;;15.57;2.95;;;;;;;12.32;100.00;98650.09;5057567;28;20024;-73
2022/11/03 08:08:58;;;;;;;7.03;2.83;;;;;;;12.10;100.00;98646.06;5052285;28;20498;-75
2022/11/03 08:11:23;;;;;;;7.40;2.90;;;;;;;11.21;100.00;98634.88;5052153;28;20116;-75
2022/11/03 08:13:50;;;;;;;5.70;2.92;;;;;;;11.92;100.00;98646.75;5059526;28;20039;-74
2022/11/03 08:16:16;;;;;;;12.98;3.08;;;;;;;11.86;100.00;98632.19;5053688;28;20482;-74
2022/11/03 08:18:41;;;;;;;9.20;3.00;;;;;;;11.95;100.00;98624.66;5076328;28;20116;-74
2022/11/03 08:21:06;;;;;;;8.70;3.30;;;;;;;11.95;100.00;98635.50;5060307;28;20021;-75
2022/11/03 08:23:32;;;;;;;7.30;3.40;;;;;;;11.88;100.00;98613.84;5049792;28;20048;-70
2022/11/03 08:25:57;;;;;;;18.05;3.20;;;;;;;11.79;100.00;98623.25;5048575;28;20024;-75
2022/11/03 08:28:23;;;;;;;6.82;2.72;;;;;;;12.09;100.00;98620.00;5045248;28;21179;-74
2022/11/03 08:30:48;;;;;;;10.32;2.85;;;;;;;12.02;100.00;98606.47;5051098;28;20028;-73
2022/11/03 08:33:14;;;;;;;7.55;3.03;;;;;;;11.87;100.00;98604.06;5061262;28;20644;-73
2022/11/03 08:35:40;;;;;;;7.13;2.75;;;;;;;12.30;100.00;98605.25;5058558;28;20478;-72
2022/11/03 08:38:05;;;;;;;6.97;2.67;;;;;;;12.59;100.00;98598.34;5056794;28;20493;-72
2022/11/03 08:40:31;;;;;;;11.43;3.20;;;;;;;12.86;100.00;98588.94;5048243;28;20033;-72
2022/11/03 08:42:56;;;;;;;6.75;2.58;;;;;;;13.15;100.00;98578.38;5048913;28;20067;-73
2022/11/03 08:45:21;;;;;;;9.75;3.47;;;;;;;13.57;100.00;98573.13;5067891;28;20111;-73
2022/11/03 08:47:47;;;;;;;9.00;3.40;;;;;;;13.37;100.00;98571.50;5054571;28;20052;-73
2022/11/03 08:50:12;;;;;;;7.07;2.92;;;;;;;13.76;100.00;98566.63;5054888;28;20090;-71
2022/11/03 08:52:43;;;;;;;8.90;2.88;;;;;;;13.46;100.00;98566.56;5054537;28;20048;-73
2022/11/03 08:55:08;;;;;;;5.20;2.53;;;;;;;13.19;100.00;98568.75;5052139;28;20053;-71
2022/11/03 08:57:34;;;;;;;8.07;2.90;;;;;;;13.42;100.00;98573.53;5068497;28;20036;-74
2022/11/03 08:59:59;;;;;;;4.50;2.42;;;;;;;13.51;100.00;98560.47;5066297;28;20048;-73
2022/11/03 09:02:24;;;;;;;7.35;2.80;;;;;;;13.92;100.00;98565.13;5074731;28;20081;-71
2022/11/03 09:04:50;;;;;;;9.05;3.28;;;;;;;13.22;100.00;98554.69;5082823;28;20047;-75
2022/11/03 09:07:15;;;;;;;6.63;2.67;;;;;;;13.79;100.00;98560.72;5098173;28;20029;-71
2022/11/03 09:09:40;;;;;;;5.25;2.60;;;;;;;14.73;100.00;98554.69;5070599;28;20430;-74
2022/11/03 09:12:06;;;;;;;8.68;2.97;;;;;;;14.54;100.00;98553.13;5081629;28;20489;-74
2022/11/03 09:14:31;;;;;;;8.48;3.10;;;;;;;14.33;100.00;98490.00;5105785;22;20563;-76
2022/11/03 09:16:56;;;;;;;6.93;3.22;;;;;;;15.70;100.00;98542.34;5065657;28;20085;-76
2022/11/03 09:19:22;;;;;;;8.98;2.78;;;;;;;16.67;93.64;98540.50;5066842;28;20028;-72
2022/11/03 09:21:47;;;;;;;7.97;3.28;;;;;;;16.92;89.15;98537.34;5063085;28;20111;-70
2022/11/03 09:24:12;;;;;;;7.82;3.00;;;;;;;16.17;95.30;98537.50;5062431;28;20025;-71
2022/11/03 09:26:37;;;;;;;10.07;3.45;;;;;;;16.18;96.65;98525.50;5045018;28;20048;-72
2022/11/03 09:29:03;;;;;;;8.88;3.30;;;;;;;15.51;100.00;98534.31;5049325;28;20026;-72
2022/11/03 09:31:28;;;;;;;13.82;4.10;;;;;;;15.28;100.00;98535.22;5063132;28;20065;-71
2022/11/03 09:33:54;;;;;;;8.98;3.28;;;;;;;15.91;100.00;98541.66;5049199;28;20219;-71
2022/11/03 09:36:19;;;;;;;7.35;3.42;;;;;;;15.58;100.00;98528.72;5044834;28;20021;-72
2022/11/03 09:38:44;;;;;;;8.45;3.72;;;;;;;15.58;100.00;98531.44;5049033;28;20039;-72
2022/11/03 09:41:16;;;;;;;8.70;3.90;;;;;;;15.73;100.00;98506.41;5047173;28;20029;-71
2022/11/03 09:43:43;;;;;;;6.32;3.17;;;;;;;15.52;100.00;98510.59;5047704;28;20112;-71
2022/11/03 09:46:08;;;;;;;10.52;3.72;;;;;;;16.36;100.00;98502.59;5048737;28;20055;-71
2022/11/03 09:48:33;;;;;;;6.43;3.25;;;;;;;17.20;96.84;98523.53;5043242;28;20115;-72
2022/11/03 09:51:00;;;;;;;7.68;3.05;;;;;;;16.41;100.00;98504.59;5045299;28;20116;-72
2022/11/03 09:53:25;;;;;;;8.93;3.20;;;;;;;17.05;99.17;98515.13;5048978;28;20478;-74
2022/11/03 09:55:50;;;;;;;10.13;3.47;;;;;;;16.84;99.83;98519.47;5047431;28;20047;-74
2022/11/03 09:58:17;;;;;;;10.40;3.55;;;;;;;16.81;97.78;98509.88;5075515;28;20017;-71
2022/11/03 10:00:43;;;;;;;7.10;3.33;;;;;;;15.99;100.00;98492.16;5061581;28;20374;-72
2022/11/03 10:03:11;;;;;;;6.03;2.80;;;;;;;16.12;100.00;98491.00;5044965;28;20025;-71
2022/11/03 10:05:37;;;;;;;8.52;3.72;;;;;;;15.95;100.00;98471.88;5054756;28;20544;-76
2022/11/03 10:08:10;;;;;;;9.18;3.30;;;;;;;15.80;100.00;98488.00;5068850;28;20055;-73
2022/11/03 10:10:36;;;;;;;5.47;2.90;;;;;;;15.51;100.00;98474.34;5044544;28;20028;-74
2022/11/03 10:13:07;;;;;;;10.18;3.28;;;;;;;14.65;100.00;98427.06;5046714;28;20078;-70
2022/11/03 10:15:33;;;;;;;5.97;3.15;;;;;;;15.03;100.00;98461.91;5052082;28;20036;-71
2022/11/03 10:17:59;;;;;;;7.30;3.35;;;;;;;15.20;100.00;98442.94;5054982;28;20545;-71
2022/11/03 10:20:27;;;;;;;10.73;3.50;;;;;;;14.91;100.00;98447.50;5053072;28;20028;-71
2022/11/03 10:22:54;;;;;;;8.13;3.40;;;;;;;14.82;100.00;98457.09;5058389;28;20056;-72
2022/11/03 10:25:32;;;;;;;6.20;2.65;;;;;;;14.45;100.00;98462.78;5053869;28;20028;-71
2022/11/03 10:28:20;;;;;;;6.37;2.60;;;;;;;14.30;100.00;98448.81;5046087;28;20032;-70
2022/11/03 10:30:56;;;;;;;6.07;2.77;;;;;;;14.51;100.00;98461.84;5050542;28;20310;-71
2022/11/03 10:33:36;;;;;;;9.75;3.10;;;;;;;14.20;100.00;98458.41;5045749;28;20037;-70
2022/11/03 10:36:04;;;;;;;6.47;2.72;;;;;;;14.15;100.00;98444.69;5044237;28;20043;-70
2022/11/03 10:38:34;;;;;;;10.27;3.30;;;;;;;14.50;100.00;98440.31;5050476;28;20036;-70
2022/11/03 10:41:15;;;;;;;8.05;3.17;;;;;;;14.82;100.00;98443.50;5048983;28;20099;-71
2022/11/03 10:43:42;;;;;;;8.60;2.65;;;;;;;14.87;100.00;98429.97;5060228;28;20031;-70
2022/11/03 10:46:11;;;;;;;8.55;2.60;;;;;;;14.93;100.00;98412.66;5053911;28;20112;-70
2022/11/03 10:48:37;;;;;;;13.00;2.60;;;;;;;14.88;100.00;98420.72;5051544;28;20060;-70
2022/11/03 10:51:02;;;;;;;8.27;2.75;;;;;;;14.68;100.00;98399.38;5056874;28;20114;-70
2022/11/03 10:53:28;;;;;;;8.38;2.70;;;;;;;14.79;100.00;98411.28;5043367;28;20126;-71
2022/11/03 10:55:54;;;;;;;6.45;2.50;;;;;;;14.66;100.00;98398.78;5049591;28;20390;-70
2022/11/03 10:58:20;;;;;;;4.30;2.20;;;;;;;14.55;100.00;98389.56;5046392;28;20039;-70
2022/11/03 11:00:46;;;;;;;5.07;2.00;;;;;;;14.77;100.00;98407.97;5056162;28;20029;-70
2022/11/03 11:03:12;;;;;;;3.97;2.25;;;;;;;14.87;100.00;98397.28;5053402;28;20037;-70
2022/11/03 11:05:44;;;;;;;7.47;2.47;;;;;;;14.93;100.00;98395.50;5050292;28;20031;-70
2022/11/03 11:08:10;;;;;;;5.57;2.40;;;;;;;14.99;100.00;98391.84;5046405;28;20032;-70
2022/11/03 11:10:35;;;;;;;7.30;2.63;;;;;;;14.88;100.00;98349.91;5041912;28;20056;-70
2022/11/03 11:13:03;;;;;;;8.65;2.53;;;;;;;14.99;100.00;98384.47;5049024;28;20017;-70
2022/11/03 11:15:51;;;;;;;9.13;2.60;;;;;;;14.86;100.00;98380.13;5041438;28;20075;-70
2022/11/03 11:18:29;;;;;;;5.43;1.80;;;;;;;14.87;100.00;98380.97;5066682;28;20076;-70
2022/11/03 11:20:59;;;;;;;7.40;2.35;;;;;;;14.62;100.00;98368.47;5044835;28;20146;-70
2022/11/03 11:23:27;;;;;;;15.50;2.63;;;;;;;14.78;100.00;98360.63;5036255;28;20513;-73
2022/11/03 11:26:07;;;;;;;4.80;1.63;;;;;;;14.84;100.00;98359.66;5042579;28;20037;-71
2022/11/03 11:28:34;;;;;;;5.15;2.35;;;;;;;14.89;100.00;98338.78;5051491;28;20550;-70
2022/11/03 11:30:59;;;;;;;5.03;2.22;;;;;;;14.33;100.00;98277.75;5053577;28;20066;-70
2022/11/03 11:33:27;;;;;;;10.65;2.20;;;;;;;14.64;100.00;98344.53;5051813;28;20057;-72
2022/11/03 11:35:53;;;;;;;4.38;2.10;;;;;;;14.41;100.00;98341.88;5042040;28;20029;-70
2022/11/03 11:39:03;;;;;;;5.15;2.33;;;;;;;14.55;100.00;98340.56;5048263;28;20547;-71
2022/11/03 11:42:06;;;;;;;4.43;2.10;;;;;;;14.69;100.00;98336.47;5044783;28;20145;-71
2022/11/03 11:44:48;;;;;;;5.88;2.25;;;;;;;14.79;100.00;98318.69;5043700;28;20016;-71
2022/11/03 11:47:38;;;;;;;8.38;2.00;;;;;;;14.75;100.00;98320.25;5042771;28;20033;-71
2022/11/03 11:50:09;;;;;;;6.95;2.25;;;;;;;14.73;100.00;98323.22;5043205;28;20040;-72
2022/11/03 11:52:55;;;;;;;6.57;2.28;;;;;;;14.90;100.00;98309.66;5041793;28;20451;-71
2022/11/03 11:55:23;;;;;;;6.93;2.00;;;;;;;15.20;100.00;98314.03;5059012;28;20048;-70
2022/11/03 11:57:50;;;;;;;4.32;1.80;;;;;;;15.15;100.00;98305.75;5057037;28;20025;-71
2022/11/03 12:00:24;;;;;;;4.13;1.70;;;;;;;15.17;100.00;98293.53;5063430;28;20033;-70